Time;durP1;ratioP1;P1;durP2;ratioP2;P2;SDS_P1;SDS_P2;PMS_P1;PMS_P2;Temp;Humidity;BMP_temperature;BMP_pressure;BME280_temperature;BME280_humidity;BME280_pressure;Samples;Min_cycle;Max_cycle;Signal;HPM_P1;HPM_P2
2022/07/18 00:05:13;;;;;;;5.17;2.40;;;17.40;99.90;;;;;;20995560;28;20115;-77
2022/07/18 00:15:14;;;;;;;2.30;1.83;;;17.20;99.90;;;;;;20994905;28;20115;-77
2022/07/18 00:25:15;;;;;;;3.40;1.93;;;17.00;99.90;;;;;;20976044;28;20068;-77
2022/07/18 00:35:15;;;;;;;3.37;1.87;;;16.80;99.90;;;;;;20975510;28;20120;-76
2022/07/18 00:45:16;;;;;;;2.60;1.73;;;16.80;99.90;;;;;;20992723;28;20059;-76
2022/07/18 00:55:17;;;;;;;5.50;2.50;;;16.50;99.90;;;;;;20898773;23;20475;-77
2022/07/18 01:05:18;;;;;;;3.60;2.20;;;16.30;99.90;;;;;;20825738;28;20105;-77
2022/07/18 01:15:19;;;;;;;3.63;2.33;;;16.30;99.90;;;;;;20825292;28;20045;-77
2022/07/18 01:25:20;;;;;;;3.40;2.20;;;16.30;99.90;;;;;;20824610;28;20063;-77
2022/07/18 01:35:22;;;;;;;2.97;1.70;;;16.10;99.90;;;;;;20824206;28;20409;-77
2022/07/18 01:45:23;;;;;;;6.57;2.17;;;15.90;99.90;;;;;;20806102;28;20414;-77
2022/07/18 01:55:24;;;;;;;4.27;2.60;;;15.80;99.90;;;;;;20823444;28;20084;-77
2022/07/18 02:05:24;;;;;;;2.77;2.10;;;15.70;99.90;;;;;;20823223;28;20395;-77
2022/07/18 02:15:26;;;;;;;4.13;2.40;;;15.70;99.90;;;;;;20822796;28;20041;-77
2022/07/18 02:25:27;;;;;;;5.85;2.42;;;15.50;99.90;;;;;;20835553;28;20501;-76
2022/07/18 02:35:29;;;;;;;6.93;2.35;;;15.40;99.90;;;;;;20837274;28;20041;-76
2022/07/18 02:45:30;;;;;;;7.27;2.10;;;14.90;99.90;;;;;;20836567;28;20048;-76
2022/07/18 02:55:31;;;;;;;5.57;2.20;;;14.90;99.90;;;;;;20818152;28;20045;-76
2022/07/18 03:05:32;;;;;;;3.53;2.43;;;14.80;99.90;;;;;;20835097;28;20040;-77
2022/07/18 03:15:33;;;;;;;3.50;2.30;;;14.40;99.90;;;;;;20836113;28;20045;-78
2022/07/18 03:25:34;;;;;;;3.40;2.20;;;14.70;99.90;;;;;;20839152;28;20041;-79
2022/07/18 03:35:35;;;;;;;4.35;2.33;;;14.70;99.90;;;;;;20837960;28;20091;-77
2022/07/18 03:45:36;;;;;;;3.80;2.37;;;14.40;99.90;;;;;;20839118;28;20030;-80
2022/07/18 03:55:37;;;;;;;4.57;2.57;;;14.50;99.90;;;;;;20809885;28;20051;-79
2022/07/18 04:05:37;;;;;;;4.83;2.30;;;14.60;99.90;;;;;;20821909;28;20470;-79
2022/07/18 04:15:39;;;;;;;3.07;2.37;;;14.60;99.90;;;;;;20781214;28;20041;-79
2022/07/18 04:25:41;;;;;;;3.17;2.22;;;14.50;99.90;;;;;;20748998;28;20057;-78
2022/07/18 04:35:42;;;;;;;2.78;2.08;;;15.00;99.90;;;;;;20749636;28;20525;-79
2022/07/18 04:45:43;;;;;;;3.10;2.40;;;14.90;99.90;;;;;;20745464;28;20156;-79
2022/07/18 04:55:44;;;;;;;3.40;2.50;;;14.70;99.90;;;;;;20746659;28;20460;-78
2022/07/18 05:05:45;;;;;;;3.13;2.50;;;15.20;99.90;;;;;;20748594;28;20033;-78
2022/07/18 05:15:46;;;;;;;3.83;2.27;;;15.50;99.90;;;;;;20744129;28;20033;-78
2022/07/18 05:25:46;;;;;;;7.13;3.17;;;16.20;99.90;;;;;;20725676;28;20046;-77
2022/07/18 05:35:47;;;;;;;4.73;2.93;;;16.80;99.90;;;;;;20722836;28;20073;-78
2022/07/18 05:45:48;;;;;;;5.13;2.87;;;17.40;99.90;;;;;;20742493;28;20034;-77
2022/07/18 05:55:49;;;;;;;5.60;2.83;;;17.80;99.90;;;;;;20746846;28;20045;-78
2022/07/18 06:05:50;;;;;;;3.60;2.80;;;18.30;99.90;;;;;;20740578;28;20537;-77
2022/07/18 06:15:51;;;;;;;5.73;2.80;;;18.70;99.90;;;;;;20757573;28;20034;-77
2022/07/18 06:25:51;;;;;;;4.50;2.00;;;19.10;99.90;;;;;;20756737;28;20049;-78
2022/07/18 06:35:52;;;;;;;4.63;2.50;;;19.70;99.90;;;;;;20758883;28;20668;-75
2022/07/18 06:45:53;;;;;;;6.90;2.73;;;20.10;99.90;;;;;;20777203;28;20563;-75
2022/07/18 06:55:55;;;;;;;2.40;2.13;;;20.40;99.90;;;;;;20860429;22;20574;-75
2022/07/18 07:05:55;;;;;;;3.60;2.25;;;21.00;99.90;;;;;;20780749;28;20048;-75
2022/07/18 07:15:56;;;;;;;3.27;2.20;;;21.60;99.90;;;;;;20753615;28;20557;-75
2022/07/18 07:25:57;;;;;;;2.97;2.10;;;22.30;99.90;;;;;;20752598;28;20482;-75
2022/07/18 07:35:59;;;;;;;;;;;23.30;99.90;;;;;;20734862;28;20045;-75
2022/07/18 07:46:00;;;;;;;4.25;2.55;;;24.00;99.90;;;;;;20750950;28;19920;-75
2022/07/18 07:56:02;;;;;;;3.08;1.67;;;24.50;99.90;;;;;;20749718;28;20046;-75
2022/07/18 08:06:03;;;;;;;4.70;1.85;;;25.10;99.90;;;;;;20749073;28;20064;-75
2022/07/18 08:16:03;;;;;;;;;;;24.90;99.90;;;;;;20748043;28;20038;-75
2022/07/18 08:26:04;;;;;;;4.70;1.90;;;25.80;97.20;;;;;;20730030;28;20008;-75
2022/07/18 08:36:07;;;;;;;5.53;2.03;;;26.40;96.60;;;;;;20747331;28;20030;-75
2022/07/18 08:46:08;;;;;;;2.80;1.50;;;27.50;96.10;;;;;;20748533;28;20038;-75
2022/07/18 08:56:09;;;;;;;2.58;1.38;;;27.80;95.20;;;;;;20747776;28;20046;-75
2022/07/18 09:06:11;;;;;;;2.60;1.60;;;28.30;94.80;;;;;;20747482;28;20077;-75
2022/07/18 09:16:14;;;;;;;2.65;1.67;;;28.60;93.20;;;;;;20730586;28;20346;-75
2022/07/18 09:26:33;;;;;;;2.83;1.35;;;28.90;93.40;;;;;;20745963;28;20038;-75
2022/07/18 09:36:36;;;;;;;6.97;1.88;;;29.80;91.50;;;;;;20748041;28;20065;-75
2022/07/18 09:47:03;;;;;;;3.83;1.52;;;30.20;93.60;;;;;;20747514;28;20473;-75
2022/07/18 09:57:04;;;;;;;3.50;1.63;;;30.60;91.90;;;;;;20726690;28;20054;-75
2022/07/18 10:07:06;;;;;;;2.45;1.50;;;32.30;91.40;;;;;;20745046;28;20410;-75
2022/07/18 10:17:06;;;;;;;2.08;1.10;;;33.20;86.10;;;;;;20745877;28;20506;-74
2022/07/18 10:27:18;;;;;;;6.25;1.60;;;32.50;83.30;;;;;;20725504;28;20042;-75
2022/07/18 10:37:24;;;;;;;2.25;1.52;;;33.30;84.90;;;;;;20741828;28;20048;-75
2022/07/18 10:47:29;;;;;;;2.63;1.48;;;33.40;86.30;;;;;;20756814;28;20046;-75
2022/07/18 10:57:34;;;;;;;2.95;1.15;;;33.30;81.70;;;;;;20757580;28;20064;-75
2022/07/18 11:07:35;;;;;;;5.85;1.60;;;34.70;77.20;;;;;;20676859;28;20035;-74
2022/07/18 11:17:54;;;;;;;4.95;1.45;;;34.20;78.40;;;;;;20654893;28;20046;-75
2022/07/18 11:27:57;;;;;;;2.13;1.27;;;33.70;79.60;;;;;;20672110;28;20058;-74
2022/07/18 11:38:04;;;;;;;5.13;1.10;;;35.20;79.30;;;;;;20671087;28;20035;-75
2022/07/18 11:48:05;;;;;;;2.55;1.10;;;35.00;75.40;;;;;;20670888;28;20125;-75
2022/07/18 11:58:11;;;;;;;1.85;0.77;;;35.90;74.00;;;;;;20668984;28;20430;-74
2022/07/18 12:08:31;;;;;;;2.88;1.13;;;35.90;68.20;;;;;;20687968;28;20042;-75
2022/07/18 12:18:32;;;;;;;3.72;1.23;;;35.90;71.30;;;;;;20670384;28;20093;-75
2022/07/18 12:28:33;;;;;;;5.35;1.00;;;35.60;72.30;;;;;;20669278;28;20046;-75
2022/07/18 12:38:34;;;;;;;4.37;1.17;;;35.30;74.90;;;;;;20666359;28;20406;-75
2022/07/18 12:48:37;;;;;;;2.35;1.20;;;36.00;70.50;;;;;;20668348;28;20789;-75
2022/07/18 12:58:37;;;;;;;4.38;1.20;;;35.50;72.00;;;;;;20668904;28;20051;-75
2022/07/18 13:08:38;;;;;;;3.97;1.33;;;36.30;68.70;;;;;;20668196;28;20494;-74
2022/07/18 13:18:39;;;;;;;6.47;1.30;;;35.90;69.90;;;;;;20672341;28;20100;-74
2022/07/18 13:28:40;;;;;;;3.90;1.47;;;36.70;68.00;;;;;;20670135;28;20782;-75
2022/07/18 13:38:40;;;;;;;4.40;1.27;;;36.90;69.10;;;;;;20672186;28;20285;-74
2022/07/18 13:48:41;;;;;;;5.23;1.40;;;36.70;65.50;;;;;;20683809;28;20293;-75
2022/07/18 13:58:42;;;;;;;4.55;1.77;;;37.20;67.20;;;;;;20710947;28;20281;-75
2022/07/18 14:08:43;;;;;;;2.90;1.23;;;37.00;66.30;;;;;;20707112;28;20505;-76
2022/07/18 14:18:44;;;;;;;2.90;1.23;;;36.40;65.20;;;;;;20732639;28;20347;-75
2022/07/18 14:28:44;;;;;;;5.65;1.55;;;37.00;65.80;;;;;;20740367;28;20670;-75
2022/07/18 14:38:45;;;;;;;4.43;1.35;;;35.80;66.80;;;;;;20739286;28;20406;-75
2022/07/18 14:48:48;;;;;;;5.07;1.80;;;36.60;66.30;;;;;;20697265;28;20068;-75
2022/07/18 14:58:49;;;;;;;8.70;1.40;;;35.90;66.50;;;;;;20719768;28;20773;-75
2022/07/18 15:08:50;;;;;;;7.37;1.70;;;36.30;66.50;;;;;;20751511;28;20044;-75
2022/07/18 15:18:50;;;;;;;3.78;1.60;;;36.50;67.00;;;;;;20754420;28;20299;-75
2022/07/18 15:28:51;;;;;;;2.00;1.30;;;36.20;66.50;;;;;;20754500;28;20296;-75
2022/07/18 15:38:52;;;;;;;5.00;1.60;;;35.70;66.70;;;;;;20755196;28;20134;-75
2022/07/18 15:48:53;;;;;;;3.63;1.10;;;35.70;65.50;;;;;;20751957;28;20124;-74
2022/07/18 15:58:54;;;;;;;4.40;1.50;;;35.40;65.70;;;;;;20751304;28;20048;-73
2022/07/18 16:08:54;;;;;;;6.75;1.52;;;35.00;68.50;;;;;;20750170;28;20038;-74
2022/07/18 16:18:55;;;;;;;4.63;1.40;;;34.60;68.60;;;;;;20749821;28;20081;-73
2022/07/18 16:28:56;;;;;;;6.47;1.73;;;34.60;66.80;;;;;;20747912;28;20292;-73
2022/07/18 16:38:57;;;;;;;4.00;1.50;;;34.30;67.50;;;;;;20747578;28;20269;-74
2022/07/18 16:48:59;;;;;;;6.63;2.38;;;34.40;66.00;;;;;;20747015;28;20316;-74
2022/07/18 16:59:00;;;;;;;6.72;1.63;;;34.10;68.90;;;;;;20745581;28;20041;-74
2022/07/18 17:09:01;;;;;;;7.05;1.63;;;33.90;68.60;;;;;;20745177;28;20084;-74
2022/07/18 17:19:02;;;;;;;4.22;1.40;;;33.70;71.30;;;;;;20744986;28;20084;-74
2022/07/18 17:29:03;;;;;;;4.68;1.77;;;33.20;70.60;;;;;;20743677;28;20121;-74
2022/07/18 17:39:04;;;;;;;7.20;2.22;;;33.10;72.10;;;;;;20742898;28;20414;-74
2022/07/18 17:49:06;;;;;;;8.50;1.50;;;33.00;74.60;;;;;;20743620;28;20065;-74
2022/07/18 17:59:06;;;;;;;9.55;1.27;;;32.90;73.10;;;;;;20758569;28;20576;-74
2022/07/18 18:09:07;;;;;;;2.78;1.20;;;32.80;73.80;;;;;;20754679;28;20050;-74
2022/07/18 18:19:08;;;;;;;3.50;1.48;;;33.00;73.80;;;;;;20755588;28;20030;-74
2022/07/18 18:29:12;;;;;;;3.97;1.50;;;33.30;73.10;;;;;;20757220;28;20068;-73
2022/07/18 18:39:13;;;;;;;5.93;1.70;;;31.30;76.00;;;;;;20756408;28;20066;-73
2022/07/18 18:49:15;;;;;;;4.70;1.58;;;30.50;77.00;;;;;;20755655;28;20069;-73
2022/07/18 18:59:16;;;;;;;3.92;2.05;;;29.80;81.00;;;;;;20736402;28;20100;-73
2022/07/18 19:09:17;;;;;;;6.15;1.80;;;28.70;85.00;;;;;;20753936;28;20038;-73
2022/07/18 19:19:18;;;;;;;6.22;2.22;;;28.40;84.70;;;;;;20753265;28;20049;-73
2022/07/18 19:29:19;;;;;;;4.07;1.95;;;28.00;86.90;;;;;;20752097;28;20038;-74
2022/07/18 19:39:20;;;;;;;3.67;1.98;;;27.10;88.50;;;;;;20751080;28;20069;-74
2022/07/18 19:49:21;;;;;;;7.10;2.17;;;27.00;87.70;;;;;;20750548;28;20487;-74
2022/07/18 19:59:21;;;;;;;6.70;1.83;;;26.60;88.90;;;;;;20749648;28;20493;-76
2022/07/18 20:09:22;;;;;;;2.15;1.40;;;26.40;90.00;;;;;;20748700;28;20049;-77
2022/07/18 20:19:23;;;;;;;3.58;1.80;;;26.40;90.10;;;;;;20747042;28;20486;-76
2022/07/18 20:29:24;;;;;;;;;;;26.00;90.70;;;;;;20730077;28;20049;-77
2022/07/18 20:39:25;;;;;;;2.50;1.67;;;25.60;90.90;;;;;;20747021;28;20332;-76
2022/07/18 20:49:26;;;;;;;;;;;25.20;91.50;;;;;;20728344;28;20042;-77
2022/07/18 20:59:26;;;;;;;3.10;2.38;;;25.10;92.80;;;;;;20746345;28;19968;-77
2022/07/18 21:09:27;;;;;;;8.00;1.90;;;23.70;94.40;;;;;;20745250;28;20052;-77
2022/07/18 21:19:28;;;;;;;4.60;1.87;;;23.60;95.00;;;;;;20744855;28;20343;-76
2022/07/18 21:29:29;;;;;;;7.00;1.83;;;23.20;95.50;;;;;;20726785;28;20701;-76
2022/07/18 21:39:31;;;;;;;2.53;2.00;;;24.10;93.10;;;;;;20746516;28;20041;-77
2022/07/18 21:49:31;;;;;;;4.65;2.47;;;23.80;93.70;;;;;;20745012;28;20621;-76
2022/07/18 21:59:32;;;;;;;3.70;1.60;;;23.90;93.40;;;;;;20744249;28;20062;-76
2022/07/18 22:09:33;;;;;;;4.70;1.77;;;23.80;93.70;;;;;;20746857;28;20184;-77
2022/07/18 22:19:36;;;;;;;2.95;1.88;;;23.70;93.80;;;;;;20514218;28;20179;-77
2022/07/18 22:29:37;;;;;;;2.72;1.60;;;23.60;93.60;;;;;;20497433;28;20054;-77
2022/07/18 22:39:37;;;;;;;4.47;1.87;;;23.50;93.80;;;;;;20519858;28;20071;-77
2022/07/18 22:49:39;;;;;;;6.70;1.70;;;23.40;93.70;;;;;;20721298;28;20128;-77
2022/07/18 22:59:39;;;;;;;;;;;23.20;94.00;;;;;;20775125;28;20068;-77
2022/07/18 23:09:40;;;;;;;2.80;2.10;;;22.90;94.70;;;;;;20754660;28;19914;-76
2022/07/18 23:19:41;;;;;;;3.63;2.07;;;22.70;94.90;;;;;;20777830;28;20045;-77
2022/07/18 23:29:42;;;;;;;2.17;1.93;;;22.60;95.00;;;;;;20775801;28;20045;-77
2022/07/18 23:39:44;;;;;;;2.57;1.80;;;22.50;95.00;;;;;;20775787;28;20041;-76
2022/07/18 23:49:45;;;;;;;4.32;2.00;;;22.40;95.10;;;;;;20756342;28;20136;-77
2022/07/18 23:59:46;;;;;;;;;;;22.20;95.70;;;;;;20778325;28;20048;-76
